createdAt,value
2023-04-16T00:08:24.780Z,3.60
2023-04-16T00:18:46.174Z,4.95
2023-04-16T00:29:07.688Z,4.20
2023-04-16T00:39:28.876Z,3.75
2023-04-16T00:49:50.773Z,3.90
2023-04-16T01:00:13.665Z,3.55
2023-04-16T01:10:34.846Z,4.40
2023-04-16T01:20:56.306Z,3.05
2023-04-16T01:31:17.676Z,2.88
2023-04-16T01:41:46.937Z,3.97
2023-04-16T01:52:09.106Z,3.22
2023-04-16T02:02:31.258Z,3.28
2023-04-16T02:12:53.977Z,3.08
2023-04-16T02:23:15.555Z,3.40
2023-04-16T02:33:38.286Z,3.85
2023-04-16T02:43:59.476Z,2.53
2023-04-16T02:54:21.230Z,2.83
2023-04-16T03:04:42.745Z,3.22
2023-04-16T03:15:04.566Z,3.60
2023-04-16T03:25:25.683Z,2.80
2023-04-16T03:35:47.021Z,2.70
2023-04-16T03:46:09.436Z,3.35
2023-04-16T03:56:30.923Z,2.60
2023-04-16T04:06:52.196Z,2.97
2023-04-16T04:17:14.584Z,3.42
2023-04-16T04:27:36.084Z,3.15
2023-04-16T04:37:57.721Z,2.90
2023-04-16T04:48:19.095Z,2.13
2023-04-16T04:58:42.077Z,2.85
2023-04-16T05:09:03.703Z,2.95
2023-04-16T05:19:25.026Z,2.60
2023-04-16T05:29:46.066Z,2.47
2023-04-16T05:40:07.778Z,2.35
2023-04-16T05:50:29.154Z,2.83
2023-04-16T06:00:50.472Z,2.47
2023-04-16T06:11:11.950Z,2.97
2023-04-16T06:21:33.786Z,2.97
2023-04-16T06:31:55.129Z,2.92
2023-04-16T06:42:16.347Z,2.88
2023-04-16T06:52:37.634Z,3.65
2023-04-16T07:03:01.523Z,3.03
2023-04-16T07:13:23.353Z,2.85
2023-04-16T07:23:44.557Z,3.33
2023-04-16T07:34:06.295Z,3.45
2023-04-16T07:44:27.349Z,2.80
2023-04-16T07:54:48.562Z,2.75
2023-04-16T08:05:11.038Z,2.45
2023-04-16T08:15:32.691Z,2.38
2023-04-16T08:25:54.977Z,2.35
2023-04-16T08:36:16.305Z,3.08
2023-04-16T08:46:38.399Z,2.25
2023-04-16T08:57:00.086Z,3.33
2023-04-16T09:07:22.328Z,2.47
2023-04-16T09:17:43.315Z,2.50
2023-04-16T09:28:05.000Z,3.08
2023-04-16T09:38:26.856Z,2.72
2023-04-16T09:48:48.184Z,2.88
2023-04-16T09:59:12.307Z,3.53
2023-04-16T10:09:38.011Z,2.92
2023-04-16T10:20:00.591Z,4.07
2023-04-16T10:30:22.541Z,3.47
2023-04-16T10:40:45.215Z,2.95
2023-04-16T10:51:06.585Z,2.25
2023-04-16T11:01:33.145Z,2.08
2023-04-16T11:11:54.505Z,2.22
2023-04-16T11:22:17.659Z,2.67
2023-04-16T11:32:39.436Z,3.80
2023-04-16T11:43:13.990Z,2.25
2023-04-16T11:53:36.968Z,2.25
2023-04-16T12:04:02.625Z,3.65
2023-04-16T12:14:24.389Z,5.37
2023-04-16T12:24:45.831Z,2.83
2023-04-16T12:35:07.124Z,3.03
2023-04-16T12:45:29.003Z,2.78
2023-04-16T12:55:50.128Z,2.83
2023-04-16T13:06:11.199Z,3.20
2023-04-16T13:16:32.562Z,3.13
2023-04-16T13:26:54.045Z,2.95
2023-04-16T13:37:15.063Z,2.88
2023-04-16T13:47:36.726Z,2.75
2023-04-16T13:57:58.139Z,4.07
2023-04-16T14:08:21.466Z,2.97
2023-04-16T14:18:42.688Z,2.42
2023-04-16T14:29:04.039Z,2.70
2023-04-16T14:39:25.288Z,3.35
2023-04-16T14:49:46.320Z,2.50
2023-04-16T15:00:10.581Z,2.58
2023-04-16T15:10:31.747Z,2.85
2023-04-16T15:20:54.919Z,4.45
2023-04-16T15:31:16.374Z,2.60
2023-04-16T15:41:50.146Z,3.35
2023-04-16T15:52:20.207Z,2.78
2023-04-16T16:02:42.308Z,2.60
2023-04-16T16:13:05.762Z,2.47
2023-04-16T16:23:27.598Z,2.75
2023-04-16T16:33:49.066Z,3.70
2023-04-16T16:44:10.012Z,2.17
2023-04-16T16:54:31.543Z,2.13
2023-04-16T17:04:53.024Z,2.42
2023-04-16T17:15:14.644Z,3.28
2023-04-16T17:25:35.898Z,3.60
2023-04-16T17:35:57.161Z,3.25
2023-04-16T17:46:18.568Z,3.33
2023-04-16T17:56:39.978Z,4.05
2023-04-16T18:07:01.301Z,3.55
2023-04-16T18:17:23.045Z,3.50
2023-04-16T18:27:45.654Z,5.15
2023-04-16T18:38:06.867Z,3.30
2023-04-16T18:48:27.865Z,4.28
2023-04-16T18:58:49.565Z,3.45
2023-04-16T19:09:11.692Z,4.05
2023-04-16T19:19:33.301Z,5.22
2023-04-16T19:29:54.606Z,4.53
2023-04-16T19:40:15.612Z,4.68
2023-04-16T19:50:40.334Z,3.80
2023-04-16T20:01:01.700Z,3.85
2023-04-16T20:11:24.009Z,3.85
2023-04-16T20:21:45.789Z,3.72
2023-04-16T20:32:07.516Z,3.67
2023-04-16T20:42:32.277Z,3.85
2023-04-16T20:52:53.793Z,4.32
2023-04-16T21:03:15.690Z,4.03
2023-04-16T21:13:37.241Z,4.63
2023-04-16T21:23:58.504Z,4.35
2023-04-16T21:34:19.512Z,4.55
2023-04-16T21:44:40.857Z,3.80
2023-04-16T21:55:02.416Z,3.70
2023-04-16T22:05:25.270Z,4.03
2023-04-16T22:15:46.268Z,4.65
2023-04-16T22:26:08.563Z,3.90
2023-04-16T22:36:29.888Z,5.35
2023-04-16T22:46:51.181Z,6.05
2023-04-16T22:57:12.441Z,5.00
2023-04-16T23:07:33.704Z,5.88
2023-04-16T23:17:54.838Z,4.72
2023-04-16T23:28:15.977Z,5.35
2023-04-16T23:38:37.605Z,5.55
2023-04-16T23:48:58.782Z,5.22
2023-04-16T23:59:19.890Z,4.18
